Time;durP1;ratioP1;P1;durP2;ratioP2;P2;SDS_P1;SDS_P2;PMS_P1;PMS_P2;Temp;Humidity;BMP_temperature;BMP_pressure;BME280_temperature;BME280_humidity;BME280_pressure;Samples;Min_cycle;Max_cycle;Signal;HPM_P1;HPM_P2
2022/01/08 00:02:23;;;;;;;15.98;8.73;;;2.10;99.90;;;;;;5120894;28;20591;-66
2022/01/08 00:04:49;;;;;;;19.60;9.77;;;2.10;99.90;;;;;;5116505;28;20051;-66
2022/01/08 00:07:14;;;;;;;15.65;8.35;;;1.90;99.90;;;;;;5129055;28;20047;-66
2022/01/08 00:09:40;;;;;;;17.35;9.02;;;2.00;99.90;;;;;;5124974;28;20046;-66
2022/01/08 00:12:07;;;;;;;16.75;9.73;;;2.00;99.90;;;;;;5118805;28;20063;-66
2022/01/08 00:14:32;;;;;;;17.38;9.43;;;1.90;99.90;;;;;;5128026;28;20146;-66
2022/01/08 00:16:58;;;;;;;15.50;9.40;;;1.90;99.90;;;;;;5129421;28;20501;-66
2022/01/08 00:19:24;;;;;;;15.68;8.57;;;1.90;99.90;;;;;;5122922;28;20088;-66
2022/01/08 00:21:50;;;;;;;16.45;9.85;;;1.80;99.90;;;;;;5116461;28;20097;-66
2022/01/08 00:24:16;;;;;;;13.38;8.27;;;1.70;99.90;;;;;;5126681;28;20105;-66
2022/01/08 00:26:42;;;;;;;13.93;8.68;;;1.70;99.90;;;;;;5119820;28;20152;-66
2022/01/08 00:29:07;;;;;;;15.48;9.57;;;1.80;99.90;;;;;;5125046;28;20055;-66
2022/01/08 00:31:33;;;;;;;16.42;8.73;;;1.70;99.90;;;;;;5113874;28;20069;-66
2022/01/08 00:33:59;;;;;;;18.05;9.55;;;1.80;99.90;;;;;;5117526;28;20054;-66
2022/01/08 00:36:25;;;;;;;14.32;8.18;;;1.80;99.90;;;;;;5113992;28;20048;-66
2022/01/08 00:38:50;;;;;;;15.93;8.85;;;1.80;99.90;;;;;;5120177;28;20114;-66
2022/01/08 00:41:16;;;;;;;18.52;8.70;;;1.90;99.90;;;;;;5127126;28;20107;-66
2022/01/08 00:43:42;;;;;;;14.50;8.05;;;1.70;99.90;;;;;;5119146;28;20077;-66
2022/01/08 00:46:08;;;;;;;13.55;8.02;;;1.80;99.90;;;;;;5123086;28;20043;-66
2022/01/08 00:48:33;;;;;;;19.33;8.40;;;1.60;99.90;;;;;;5151118;27;20043;-66
2022/01/08 00:50:59;;;;;;;13.32;8.32;;;1.60;99.90;;;;;;5121916;28;20048;-66
2022/01/08 00:53:25;;;;;;;14.63;8.73;;;1.60;99.90;;;;;;5114551;28;20114;-66
2022/01/08 00:55:51;;;;;;;14.25;8.15;;;1.60;99.90;;;;;;5113952;28;20075;-66
2022/01/08 00:58:17;;;;;;;13.10;8.02;;;1.50;99.90;;;;;;5120709;28;20036;-66
2022/01/08 01:00:42;;;;;;;14.57;8.55;;;1.60;99.90;;;;;;5118621;28;20107;-66
2022/01/08 01:03:09;;;;;;;12.95;7.70;;;1.70;99.90;;;;;;5121386;28;20039;-66
2022/01/08 01:05:34;;;;;;;14.00;8.57;;;1.60;99.90;;;;;;5153452;27;20492;-66
2022/01/08 01:08:00;;;;;;;16.75;7.68;;;1.70;99.90;;;;;;5126116;28;20043;-66
2022/01/08 01:10:26;;;;;;;13.90;7.38;;;1.60;99.90;;;;;;5124298;28;20044;-66
2022/01/08 01:12:52;;;;;;;10.63;6.93;;;1.60;99.90;;;;;;5126438;28;20575;-66
2022/01/08 01:15:18;;;;;;;12.63;5.97;;;1.70;99.90;;;;;;5127567;28;20040;-66
2022/01/08 01:17:45;;;;;;;13.68;5.75;;;1.80;99.90;;;;;;5117451;28;20119;-66
2022/01/08 01:20:15;;;;;;;12.95;7.13;;;1.80;99.90;;;;;;5130830;27;20039;-66
2022/01/08 01:22:53;;;;;;;15.25;7.43;;;1.80;99.90;;;;;;5115941;28;20031;-66
2022/01/08 01:25:25;;;;;;;15.25;7.13;;;1.70;99.90;;;;;;5119341;28;20082;-66
2022/01/08 01:30:20;;;;;;;13.20;8.05;;;1.60;99.90;;;;;;5121230;28;20082;-66
2022/01/08 01:49:12;;;;;;;16.58;9.70;;;1.70;99.90;;;;;;5118440;28;20097;-66
2022/01/08 01:51:38;;;;;;;18.27;10.40;;;1.80;99.90;;;;;;5127209;28;20035;-66
2022/01/08 01:54:04;;;;;;;18.98;10.57;;;1.70;99.90;;;;;;5117270;28;20040;-66
2022/01/08 01:56:30;;;;;;;17.77;9.55;;;1.60;99.90;;;;;;5124205;28;20108;-66
2022/01/08 01:58:55;;;;;;;17.42;10.60;;;1.70;99.90;;;;;;5127546;28;20074;-66
2022/01/08 02:01:21;;;;;;;23.33;11.57;;;1.50;99.90;;;;;;5118103;27;20059;-66
2022/01/08 02:03:47;;;;;;;22.58;11.80;;;1.40;99.90;;;;;;5119333;28;20040;-66
2022/01/08 02:06:13;;;;;;;22.52;12.10;;;1.60;99.90;;;;;;5119017;28;20047;-66
2022/01/08 02:08:39;;;;;;;24.67;13.27;;;1.60;99.90;;;;;;5115079;28;20103;-66
2022/01/08 02:11:07;;;;;;;23.05;12.75;;;1.40;99.90;;;;;;5118541;28;20492;-66
2022/01/08 02:13:33;;;;;;;23.42;13.43;;;1.40;99.90;;;;;;5124901;28;20073;-66
2022/01/08 02:16:01;;;;;;;23.17;13.27;;;1.40;99.90;;;;;;5119792;28;20043;-66
2022/01/08 02:18:27;;;;;;;21.23;13.63;;;1.50;99.90;;;;;;5119979;27;20047;-66
2022/01/08 02:20:55;;;;;;;26.10;13.00;;;1.60;99.90;;;;;;5111734;28;20040;-66
2022/01/08 02:23:22;;;;;;;22.00;13.05;;;1.50;99.90;;;;;;5127310;28;20051;-66
2022/01/08 02:25:49;;;;;;;24.45;13.00;;;1.60;99.90;;;;;;5116234;28;20469;-66
2022/01/08 02:28:15;;;;;;;22.52;13.52;;;1.50;99.90;;;;;;5154454;27;20506;-66
2022/01/08 02:30:40;;;;;;;23.67;14.30;;;1.50;99.90;;;;;;5120381;28;20043;-66
2022/01/08 02:33:06;;;;;;;24.67;12.73;;;1.60;99.90;;;;;;5119758;28;20042;-66
2022/01/08 02:35:34;;;;;;;25.10;12.60;;;1.50;99.90;;;;;;5122790;28;20047;-66
2022/01/08 02:38:00;;;;;;;22.50;13.63;;;1.50;99.90;;;;;;5112407;28;20055;-66
2022/01/08 02:40:26;;;;;;;19.65;12.35;;;1.60;99.90;;;;;;5119761;28;20057;-66
2022/01/08 02:43:02;;;;;;;22.63;12.35;;;1.60;99.90;;;;;;5120081;28;20051;-66
2022/01/08 02:45:29;;;;;;;23.65;13.50;;;1.50;99.90;;;;;;5113005;27;20062;-66
2022/01/08 02:47:55;;;;;;;22.88;13.18;;;1.60;99.90;;;;;;5122792;28;20123;-66
2022/01/08 02:50:22;;;;;;;24.88;12.13;;;1.50;99.90;;;;;;5111014;28;20032;-66
2022/01/08 02:52:48;;;;;;;18.85;12.50;;;1.60;99.90;;;;;;5110504;28;20051;-66
2022/01/08 02:55:17;;;;;;;21.83;12.13;;;1.40;99.90;;;;;;5105498;28;20039;-66
2022/01/08 02:57:42;;;;;;;23.02;12.80;;;1.50;99.90;;;;;;5107874;28;20075;-66
2022/01/08 03:00:10;;;;;;;22.92;13.93;;;1.50;99.90;;;;;;5113812;28;20066;-66
2022/01/08 03:02:43;;;;;;;21.60;12.35;;;1.30;99.90;;;;;;5126125;28;20077;-66
2022/01/08 03:05:11;;;;;;;25.40;13.35;;;1.20;99.90;;;;;;5104849;28;20122;-66
2022/01/08 03:07:38;;;;;;;20.13;12.50;;;1.30;99.90;;;;;;5138641;27;20058;-66
2022/01/08 03:10:08;;;;;;;24.88;13.40;;;1.20;99.90;;;;;;5113139;28;20105;-66
2022/01/08 03:12:38;;;;;;;24.58;13.43;;;1.40;99.90;;;;;;5110866;28;20047;-66
2022/01/08 03:15:05;;;;;;;19.90;12.90;;;1.40;99.90;;;;;;5107294;28;20047;-66
2022/01/08 03:17:31;;;;;;;22.35;11.95;;;1.30;99.90;;;;;;5118719;28;20086;-66
2022/01/08 03:20:03;;;;;;;25.52;13.65;;;1.40;99.90;;;;;;5121162;28;20040;-66
2022/01/08 03:22:29;;;;;;;22.80;13.20;;;1.20;99.90;;;;;;5138867;27;20369;-66
2022/01/08 03:24:55;;;;;;;22.10;14.00;;;1.20;99.90;;;;;;5125325;28;20070;-66
2022/01/08 03:27:21;;;;;;;24.70;12.85;;;1.20;99.90;;;;;;5100879;28;20508;-66
2022/01/08 03:29:47;;;;;;;22.98;13.25;;;1.30;99.90;;;;;;5095067;28;20049;-66
2022/01/08 03:32:12;;;;;;;24.65;13.25;;;1.10;99.90;;;;;;5082005;28;20048;-66
2022/01/08 03:34:38;;;;;;;23.17;13.40;;;1.20;99.90;;;;;;5091287;28;20082;-66
2022/01/08 03:37:04;;;;;;;23.52;13.80;;;1.20;99.90;;;;;;5095877;28;20423;-66
2022/01/08 03:39:30;;;;;;;23.95;14.13;;;1.30;99.90;;;;;;5095719;28;20043;-66
2022/01/08 03:41:55;;;;;;;21.73;13.70;;;1.30;99.90;;;;;;5103993;28;20099;-66
2022/01/08 03:44:21;;;;;;;23.58;12.82;;;1.20;99.90;;;;;;5086060;28;20055;-66
2022/01/08 03:46:47;;;;;;;23.42;13.02;;;1.10;99.90;;;;;;5104988;28;20099;-66
2022/01/08 03:49:24;;;;;;;25.40;13.00;;;1.20;99.90;;;;;;5100087;28;20082;-66
2022/01/08 03:51:55;;;;;;;27.90;13.55;;;1.00;99.90;;;;;;5097536;28;20051;-66
2022/01/08 03:54:21;;;;;;;25.02;14.10;;;1.10;99.90;;;;;;5074007;28;20365;-66
2022/01/08 03:56:47;;;;;;;23.48;13.30;;;1.10;99.90;;;;;;5084737;28;20060;-66
2022/01/08 03:59:13;;;;;;;25.20;13.20;;;1.20;99.90;;;;;;5102681;28;20126;-66
2022/01/08 04:01:38;;;;;;;25.63;12.75;;;1.10;99.90;;;;;;5097455;28;20059;-66
2022/01/08 04:04:04;;;;;;;23.00;13.05;;;1.20;99.90;;;;;;5097493;28;20048;-66
2022/01/08 04:06:30;;;;;;;25.05;12.95;;;1.20;99.90;;;;;;5094122;28;20112;-66
2022/01/08 04:08:57;;;;;;;26.13;13.30;;;1.20;99.90;;;;;;5096859;28;20032;-66
2022/01/08 04:11:25;;;;;;;21.88;12.07;;;1.10;99.90;;;;;;5092179;28;20062;-66
2022/01/08 04:13:52;;;;;;;22.63;13.05;;;1.20;99.90;;;;;;5071069;28;20048;-66
2022/01/08 04:16:25;;;;;;;22.83;12.15;;;1.10;99.90;;;;;;5074913;28;20104;-66
2022/01/08 04:18:50;;;;;;;20.58;11.43;;;1.10;99.90;;;;;;5083411;28;20048;-66
2022/01/08 04:23:53;;;;;;;20.83;11.18;;;1.10;99.90;;;;;;5080355;28;20060;-66
2022/01/08 04:26:21;;;;;;;18.33;10.68;;;1.10;99.90;;;;;;5078833;28;20070;-66
2022/01/08 04:28:48;;;;;;;17.92;10.77;;;1.00;99.90;;;;;;5123001;28;20063;-66
2022/01/08 04:31:14;;;;;;;14.98;9.98;;;1.00;99.90;;;;;;5105554;28;20101;-66
2022/01/08 04:33:40;;;;;;;17.02;9.80;;;1.10;99.90;;;;;;5125760;28;20093;-66
2022/01/08 04:36:05;;;;;;;17.38;8.88;;;1.00;99.90;;;;;;5112907;28;20052;-66
2022/01/08 04:38:34;;;;;;;20.30;9.18;;;1.10;99.90;;;;;;5094338;28;20044;-67
2022/01/08 04:41:00;;;;;;;18.85;9.23;;;1.10;99.90;;;;;;5123597;28;20051;-66
2022/01/08 04:43:26;;;;;;;18.23;8.77;;;1.20;99.90;;;;;;5123090;28;20457;-66
2022/01/08 04:45:52;;;;;;;14.65;7.90;;;1.00;99.90;;;;;;5125553;28;20066;-66
2022/01/08 04:48:18;;;;;;;14.48;8.15;;;1.00;99.90;;;;;;5104665;28;20050;-66
2022/01/08 04:50:44;;;;;;;15.52;8.52;;;0.90;99.90;;;;;;5112177;28;20072;-66
2022/01/08 04:53:10;;;;;;;18.88;8.23;;;1.20;99.90;;;;;;5094420;28;20042;-67
2022/01/08 04:55:36;;;;;;;14.25;8.68;;;1.00;99.90;;;;;;5127488;28;20043;-66
2022/01/08 04:58:03;;;;;;;15.85;9.05;;;1.20;99.90;;;;;;5125530;28;20043;-66
2022/01/08 05:00:29;;;;;;;13.18;8.27;;;1.20;99.90;;;;;;5109528;28;20130;-66
2022/01/08 05:02:55;;;;;;;15.65;8.95;;;1.20;99.90;;;;;;5139167;27;20040;-66
2022/01/08 05:05:21;;;;;;;18.50;8.38;;;1.10;99.90;;;;;;5103471;28;20122;-66
2022/01/08 05:07:46;;;;;;;16.38;9.32;;;1.20;99.90;;;;;;5107243;28;20051;-66
2022/01/08 05:10:13;;;;;;;19.58;9.10;;;1.20;99.90;;;;;;5137277;27;20136;-66
2022/01/08 05:12:39;;;;;;;17.90;9.68;;;1.20;99.90;;;;;;5118562;28;20075;-66
2022/01/08 05:15:06;;;;;;;21.50;10.27;;;1.10;99.90;;;;;;5127884;28;20043;-67
2022/01/08 05:17:35;;;;;;;20.70;10.55;;;1.20;99.90;;;;;;5128328;28;20510;-66
2022/01/08 05:20:11;;;;;;;24.15;11.35;;;1.10;99.90;;;;;;5109284;28;20071;-66
2022/01/08 05:25:14;;;;;;;22.88;10.68;;;1.30;99.90;;;;;;5104700;28;20152;-66
2022/01/08 05:27:40;;;;;;;17.83;10.90;;;1.10;99.90;;;;;;5100751;28;20058;-67
2022/01/08 05:30:06;;;;;;;16.92;8.25;;;1.10;99.90;;;;;;5097761;28;20048;-66
2022/01/08 05:32:32;;;;;;;20.45;10.85;;;1.40;99.90;;;;;;5079613;28;20047;-67
2022/01/08 05:34:58;;;;;;;22.77;10.98;;;1.30;99.90;;;;;;5084836;28;20070;-67
2022/01/08 05:37:24;;;;;;;19.52;11.15;;;1.20;99.90;;;;;;5095050;28;20068;-66
2022/01/08 05:39:51;;;;;;;22.98;11.35;;;1.10;99.90;;;;;;5081485;28;20098;-66
2022/01/08 05:42:17;;;;;;;24.33;13.20;;;1.10;99.90;;;;;;5082571;28;20040;-66
2022/01/08 05:44:43;;;;;;;21.13;11.48;;;1.00;99.90;;;;;;5102558;28;20048;-67
2022/01/08 05:47:09;;;;;;;21.20;11.35;;;1.10;99.90;;;;;;5100802;28;20046;-66
2022/01/08 05:49:36;;;;;;;24.92;11.68;;;0.90;99.90;;;;;;5093074;28;20131;-66
2022/01/08 05:52:02;;;;;;;26.83;12.32;;;1.00;99.90;;;;;;5098426;28;20036;-66
2022/01/08 05:54:27;;;;;;;25.50;11.50;;;0.90;99.90;;;;;;5102522;28;20036;-67
2022/01/08 05:56:53;;;;;;;24.20;11.57;;;1.00;99.90;;;;;;5104162;28;20036;-66
2022/01/08 05:59:21;;;;;;;25.27;12.13;;;1.00;99.90;;;;;;5079466;28;20058;-66
2022/01/08 06:01:47;;;;;;;21.60;11.80;;;0.90;99.90;;;;;;5068987;28;20032;-66
2022/01/08 06:04:13;;;;;;;23.73;12.57;;;1.00;99.90;;;;;;5099665;28;20075;-66
2022/01/08 06:06:40;;;;;;;22.45;12.00;;;1.00;99.90;;;;;;5106518;28;20095;-66
2022/01/08 06:09:07;;;;;;;24.42;12.02;;;0.90;99.90;;;;;;5087577;28;20048;-66
2022/01/08 06:11:33;;;;;;;23.27;12.20;;;0.90;99.90;;;;;;5097222;28;20044;-66
2022/01/08 06:13:59;;;;;;;22.08;11.98;;;0.90;99.90;;;;;;5078362;28;20127;-67
2022/01/08 06:16:24;;;;;;;22.23;11.60;;;0.90;99.90;;;;;;5105602;28;20114;-66
2022/01/08 06:18:50;;;;;;;28.50;11.40;;;0.80;99.90;;;;;;5093977;28;20044;-67
2022/01/08 06:21:16;;;;;;;28.48;11.02;;;0.80;99.90;;;;;;5098261;28;20040;-66
2022/01/08 06:23:41;;;;;;;24.85;11.25;;;0.90;99.90;;;;;;5082088;28;20040;-66
2022/01/08 06:26:08;;;;;;;23.42;11.27;;;0.90;99.90;;;;;;5106053;28;20048;-66
2022/01/08 06:28:34;;;;;;;23.27;10.07;;;0.90;99.90;;;;;;5120996;28;20184;-66
2022/01/08 06:31:00;;;;;;;22.08;10.80;;;0.80;99.90;;;;;;5120674;28;20495;-66
2022/01/08 06:33:26;;;;;;;21.65;10.35;;;0.80;99.90;;;;;;5127298;28;20039;-66
2022/01/08 06:35:51;;;;;;;22.48;9.98;;;0.80;99.90;;;;;;5127320;28;20123;-66
2022/01/08 06:38:18;;;;;;;20.98;10.68;;;0.80;99.90;;;;;;5127005;28;20040;-66
2022/01/08 06:40:45;;;;;;;20.70;10.35;;;0.80;99.90;;;;;;5090708;28;20050;-66
2022/01/08 06:43:10;;;;;;;17.90;9.27;;;0.90;99.90;;;;;;5124146;28;20043;-66
2022/01/08 06:45:36;;;;;;;17.42;9.60;;;0.80;99.90;;;;;;5126248;28;20100;-66
2022/01/08 06:48:02;;;;;;;21.70;9.40;;;0.90;99.90;;;;;;5108395;28;20043;-66
2022/01/08 06:50:28;;;;;;;16.35;9.43;;;0.80;99.90;;;;;;5108695;28;20437;-66
2022/01/08 06:52:55;;;;;;;19.25;10.10;;;0.80;99.90;;;;;;5108399;28;20078;-66
2022/01/08 06:55:21;;;;;;;20.17;11.00;;;0.70;99.90;;;;;;5126359;28;20403;-66
2022/01/08 06:57:47;;;;;;;21.45;10.13;;;0.70;99.90;;;;;;5123466;28;20450;-66
2022/01/08 07:00:14;;;;;;;16.35;9.13;;;0.80;99.90;;;;;;5109064;28;20152;-66
2022/01/08 07:02:39;;;;;;;17.38;8.88;;;0.80;99.90;;;;;;5125367;28;20479;-66
2022/01/08 07:05:05;;;;;;;20.58;8.65;;;0.70;99.90;;;;;;5125912;28;20106;-66
2022/01/08 07:07:31;;;;;;;17.75;8.80;;;0.70;99.90;;;;;;5125731;28;20074;-66
2022/01/08 07:09:57;;;;;;;16.88;8.60;;;0.70;99.90;;;;;;5107587;28;20040;-66
2022/01/08 07:12:23;;;;;;;14.88;7.93;;;0.70;99.90;;;;;;5107409;28;20078;-65
2022/01/08 07:14:49;;;;;;;17.30;9.40;;;0.90;99.90;;;;;;5108084;28;20097;-66
2022/01/08 07:17:14;;;;;;;22.00;8.20;;;0.90;99.90;;;;;;5107789;28;20423;-66
2022/01/08 07:19:40;;;;;;;19.90;9.25;;;0.90;99.90;;;;;;5125634;28;20043;-65
2022/01/08 07:22:06;;;;;;;15.48;8.98;;;0.90;99.90;;;;;;5090089;28;20052;-65
2022/01/08 07:24:32;;;;;;;21.48;8.98;;;1.10;99.90;;;;;;5107118;28;20043;-65
2022/01/08 07:26:57;;;;;;;19.00;9.20;;;1.00;99.90;;;;;;5124835;28;20063;-66
2022/01/08 07:29:23;;;;;;;19.25;9.15;;;1.20;99.90;;;;;;5122117;28;20039;-66
2022/01/08 07:31:49;;;;;;;17.65;9.20;;;1.00;99.90;;;;;;5107553;28;20073;-65
2022/01/08 07:34:14;;;;;;;17.67;8.50;;;1.00;99.90;;;;;;5141165;27;20500;-65
2022/01/08 07:36:40;;;;;;;19.52;9.10;;;1.00;99.90;;;;;;5114713;28;20036;-65
2022/01/08 07:39:06;;;;;;;19.50;9.98;;;1.10;99.90;;;;;;5121887;28;20036;-66
2022/01/08 07:41:32;;;;;;;21.20;9.95;;;1.00;99.90;;;;;;5124854;28;20135;-65
2022/01/08 07:43:58;;;;;;;18.63;9.77;;;1.00;99.90;;;;;;5106495;28;20043;-65
2022/01/08 07:46:24;;;;;;;20.27;10.30;;;0.90;99.90;;;;;;5113549;28;20106;-65
2022/01/08 07:48:50;;;;;;;23.85;10.50;;;0.90;99.90;;;;;;5106717;28;20051;-65
2022/01/08 07:51:15;;;;;;;19.10;9.95;;;1.00;99.90;;;;;;5103821;28;20048;-66
2022/01/08 07:53:41;;;;;;;24.63;9.98;;;1.00;99.90;;;;;;5122864;28;20028;-65
2022/01/08 07:56:07;;;;;;;20.08;10.25;;;1.00;99.90;;;;;;5106203;28;20044;-65
2022/01/08 07:58:33;;;;;;;19.45;10.15;;;1.00;99.90;;;;;;5115768;28;20036;-65
2022/01/08 08:00:58;;;;;;;20.65;9.52;;;1.10;99.90;;;;;;5124917;28;20121;-65
2022/01/08 08:03:24;;;;;;;21.95;10.10;;;1.10;99.90;;;;;;5140895;28;20039;-65
2022/01/08 08:05:50;;;;;;;18.00;9.13;;;1.10;99.90;;;;;;5106653;28;20043;-66
2022/01/08 08:08:17;;;;;;;17.00;8.82;;;1.10;99.90;;;;;;5106858;28;20071;-65
2022/01/08 08:10:47;;;;;;;18.15;9.00;;;1.20;99.90;;;;;;5106557;28;20078;-66
2022/01/08 08:13:14;;;;;;;17.83;9.18;;;1.00;99.90;;;;;;5118369;28;20048;-66
2022/01/08 08:15:40;;;;;;;21.98;8.63;;;1.20;99.90;;;;;;5100560;28;20074;-66
2022/01/08 08:18:05;;;;;;;13.52;6.78;;;1.30;99.90;;;;;;5115362;28;20048;-65
2022/01/08 08:20:31;;;;;;;14.90;7.00;;;1.30;99.90;;;;;;5114033;28;20047;-65
2022/01/08 08:22:57;;;;;;;19.77;7.80;;;1.30;99.90;;;;;;5106523;28;20085;-65
2022/01/08 08:25:23;;;;;;;15.85;7.57;;;1.20;99.90;;;;;;5126524;28;20043;-65
2022/01/08 08:27:50;;;;;;;14.00;7.32;;;1.40;99.90;;;;;;5127658;28;20130;-65
2022/01/08 08:30:16;;;;;;;16.52;8.55;;;1.30;99.90;;;;;;5129096;28;20044;-65
2022/01/08 08:32:42;;;;;;;14.40;7.28;;;1.30;99.90;;;;;;5111172;28;20103;-65
2022/01/08 08:35:09;;;;;;;20.05;7.25;;;1.20;99.90;;;;;;5128459;28;20050;-65
2022/01/08 08:37:36;;;;;;;14.15;7.10;;;1.20;99.90;;;;;;5110899;28;20045;-65
2022/01/08 08:40:05;;;;;;;15.85;6.95;;;1.40;99.90;;;;;;5129525;28;20130;-65
2022/01/08 08:42:31;;;;;;;15.85;6.82;;;1.50;99.90;;;;;;5128948;28;20047;-65
2022/01/08 08:44:57;;;;;;;16.80;6.93;;;1.50;99.90;;;;;;5121857;28;20040;-65
2022/01/08 08:47:23;;;;;;;11.80;6.95;;;1.50;99.90;;;;;;5108086;28;20043;-65
2022/01/08 08:49:48;;;;;;;14.88;6.75;;;1.50;99.90;;;;;;5144682;27;20079;-65
2022/01/08 08:52:14;;;;;;;13.38;6.40;;;1.60;99.90;;;;;;5128705;28;20039;-65
2022/01/08 08:54:42;;;;;;;14.35;7.50;;;1.70;99.90;;;;;;5110176;28;20462;-65
2022/01/08 08:57:09;;;;;;;12.07;6.53;;;1.50;99.90;;;;;;5128024;28;20454;-65
2022/01/08 08:59:35;;;;;;;16.45;7.35;;;1.70;99.90;;;;;;5127337;28;20047;-70
2022/01/08 09:02:01;;;;;;;17.92;6.93;;;1.70;99.90;;;;;;5128665;28;20399;-66
2022/01/08 09:04:27;;;;;;;13.68;6.85;;;1.70;99.90;;;;;;5104495;28;20142;-65
2022/01/08 09:06:52;;;;;;;18.30;7.68;;;1.70;99.90;;;;;;5121353;28;20047;-66
2022/01/08 09:09:18;;;;;;;13.77;6.88;;;1.60;99.90;;;;;;5127094;28;20043;-67
2022/01/08 09:11:45;;;;;;;14.20;6.85;;;1.70;99.90;;;;;;5108895;28;20047;-67
2022/01/08 09:14:11;;;;;;;13.32;7.15;;;1.60;99.90;;;;;;5127078;28;20050;-65
2022/01/08 09:16:37;;;;;;;13.98;7.65;;;1.60;99.90;;;;;;5126380;28;20122;-65
2022/01/08 09:19:03;;;;;;;12.35;7.05;;;1.70;99.90;;;;;;5108915;28;20048;-65
2022/01/08 09:21:29;;;;;;;14.68;7.00;;;1.80;99.90;;;;;;5127049;28;20047;-65
2022/01/08 09:23:55;;;;;;;12.48;7.53;;;1.70;99.90;;;;;;5142659;27;20043;-65
2022/01/08 09:26:21;;;;;;;17.05;7.85;;;1.90;99.90;;;;;;5126647;28;20040;-65
2022/01/08 09:28:47;;;;;;;15.85;7.25;;;1.80;99.90;;;;;;5124414;28;20051;-66
2022/01/08 09:31:13;;;;;;;17.05;7.78;;;1.90;99.90;;;;;;5138651;27;20067;-65
2022/01/08 09:33:39;;;;;;;21.00;8.25;;;1.90;99.90;;;;;;5126173;28;20099;-65
2022/01/08 09:36:06;;;;;;;15.85;8.02;;;1.90;99.90;;;;;;5107653;28;20079;-65
2022/01/08 09:38:32;;;;;;;15.75;9.05;;;1.90;99.90;;;;;;5127320;28;20224;-65
2022/01/08 09:40:58;;;;;;;14.38;6.32;;;1.90;99.90;;;;;;5127281;28;20043;-66
2022/01/08 09:43:24;;;;;;;18.92;7.88;;;2.10;99.90;;;;;;5126116;28;20514;-66
2022/01/08 09:45:49;;;;;;;15.48;7.28;;;2.10;99.90;;;;;;5123624;28;20381;-66
2022/01/08 09:48:15;;;;;;;19.85;9.52;;;2.10;99.90;;;;;;5109063;28;20106;-65
2022/01/08 09:50:42;;;;;;;16.90;8.13;;;2.30;99.90;;;;;;5127419;28;20074;-65
2022/01/08 09:53:08;;;;;;;13.73;8.00;;;2.40;99.90;;;;;;5142180;27;20096;-65
2022/01/08 09:55:34;;;;;;;15.90;8.52;;;2.30;99.90;;;;;;5125592;28;20050;-67
2022/01/08 09:58:00;;;;;;;14.80;7.82;;;2.30;99.90;;;;;;5107498;28;20047;-65
2022/01/08 10:00:26;;;;;;;16.25;8.98;;;2.40;99.90;;;;;;5127011;28;20510;-66
2022/01/08 10:02:52;;;;;;;17.65;8.68;;;2.40;99.90;;;;;;5127339;28;20108;-67
2022/01/08 10:05:18;;;;;;;18.23;8.40;;;2.30;99.90;;;;;;5126140;28;20043;-68
2022/01/08 10:08:01;;;;;;;17.45;8.40;;;2.50;99.90;;;;;;5127128;28;20073;-64
2022/01/08 10:10:27;;;;;;;13.70;8.55;;;2.70;99.90;;;;;;5113668;28;20047;-64
2022/01/08 10:13:00;;;;;;;17.20;8.32;;;2.70;99.90;;;;;;5124760;28;20047;-64
2022/01/08 10:18:33;;;;;;;17.58;8.88;;;2.90;99.90;;;;;;5122237;27;20046;-64
2022/01/08 10:21:20;;;;;;;16.77;9.32;;;3.00;99.90;;;;;;5120184;28;20047;-64
2022/01/08 10:23:50;;;;;;;18.63;8.55;;;2.90;99.90;;;;;;5115653;28;20083;-64
2022/01/08 10:26:18;;;;;;;22.95;9.88;;;3.10;99.90;;;;;;5126032;28;20052;-64
2022/01/08 10:28:49;;;;;;;15.30;8.32;;;3.10;99.90;;;;;;5125661;28;20054;-64
2022/01/08 10:31:27;;;;;;;16.23;8.70;;;3.00;99.90;;;;;;5125250;28;20203;-64
2022/01/08 10:33:54;;;;;;;16.80;9.00;;;3.20;99.90;;;;;;5121315;28;20051;-64
2022/01/08 10:36:26;;;;;;;13.93;10.15;;;3.00;99.90;;;;;;5110336;28;20063;-64
2022/01/08 10:38:57;;;;;;;15.00;10.15;;;3.00;99.90;;;;;;5121827;28;20365;-63
2022/01/08 10:41:24;;;;;;;17.17;10.85;;;2.90;99.90;;;;;;5156031;27;20054;-64
2022/01/08 10:44:13;;;;;;;17.70;10.80;;;2.80;99.90;;;;;;5119213;28;20043;-64
2022/01/08 10:46:45;;;;;;;18.02;10.63;;;2.80;99.90;;;;;;5111716;27;20047;-65
2022/01/08 10:49:15;;;;;;;20.05;10.80;;;2.80;99.90;;;;;;5124116;28;20172;-64
2022/01/08 10:51:40;;;;;;;14.45;9.60;;;3.00;99.90;;;;;;5121081;28;20059;-63
2022/01/08 10:54:09;;;;;;;17.25;10.80;;;3.00;99.90;;;;;;5122513;28;20043;-64
2022/01/08 10:56:41;;;;;;;17.98;9.80;;;3.10;99.90;;;;;;5108946;27;20115;-64
2022/01/08 10:59:13;;;;;;;19.33;10.60;;;3.20;99.90;;;;;;5123001;28;20055;-64
2022/01/08 11:01:48;;;;;;;20.40;10.27;;;3.20;99.90;;;;;;5120893;28;20376;-64
2022/01/08 11:04:16;;;;;;;17.30;10.70;;;3.20;99.90;;;;;;5124039;28;20043;-64
2022/01/08 11:06:51;;;;;;;16.33;9.23;;;3.20;99.90;;;;;;5124434;28;20316;-64
2022/01/08 11:09:17;;;;;;;18.17;10.20;;;3.40;99.90;;;;;;5125121;28;20066;-64
2022/01/08 11:11:43;;;;;;;17.23;9.98;;;3.30;99.90;;;;;;5112476;28;20085;-64
2022/01/08 11:14:21;;;;;;;20.73;9.85;;;3.30;99.90;;;;;;5140342;27;20046;-68
2022/01/08 11:16:51;;;;;;;19.10;11.73;;;3.60;99.90;;;;;;5101720;28;20032;-66
2022/01/08 11:19:18;;;;;;;19.35;10.57;;;3.30;99.90;;;;;;5117861;28;20077;-65
2022/01/08 11:21:47;;;;;;;11.27;8.00;;;3.30;99.90;;;;;;5119954;28;20073;-65
2022/01/08 11:24:15;;;;;;;19.63;10.15;;;3.50;99.90;;;;;;5114305;28;20043;-65
2022/01/08 11:26:42;;;;;;;16.63;8.38;;;3.50;99.90;;;;;;5113878;28;20047;-65
2022/01/08 11:29:10;;;;;;;17.40;10.80;;;3.60;99.90;;;;;;5124127;28;20052;-65
2022/01/08 11:31:37;;;;;;;19.52;11.48;;;3.70;99.90;;;;;;5124438;28;20043;-65
2022/01/08 11:34:08;;;;;;;19.23;10.63;;;3.40;99.90;;;;;;5123537;27;20099;-65
2022/01/08 11:36:35;;;;;;;17.02;10.77;;;3.50;99.90;;;;;;5146607;27;20055;-65
2022/01/08 11:39:02;;;;;;;20.42;11.57;;;3.60;99.90;;;;;;5125077;28;20046;-66
2022/01/08 11:41:31;;;;;;;21.00;10.75;;;3.80;99.90;;;;;;5073057;27;20052;-68
2022/01/08 11:43:57;;;;;;;17.23;11.45;;;3.80;99.90;;;;;;5110149;28;20157;-66
2022/01/08 11:46:24;;;;;;;15.02;8.63;;;3.80;99.90;;;;;;5125521;28;20047;-65
2022/01/08 11:48:54;;;;;;;20.25;11.15;;;4.00;99.90;;;;;;5123240;28;20047;-64
2022/01/08 11:51:23;;;;;;;13.40;8.50;;;3.90;99.90;;;;;;5121413;28;20058;-64
2022/01/08 11:53:59;;;;;;;18.17;10.00;;;4.00;99.90;;;;;;5153864;27;20047;-65
2022/01/08 11:56:34;;;;;;;19.90;11.20;;;4.20;99.90;;;;;;5121673;28;20659;-65
2022/01/08 11:59:19;;;;;;;19.60;11.15;;;4.10;99.90;;;;;;5122275;28;20047;-66
2022/01/08 12:02:09;;;;;;;26.77;13.50;;;4.00;99.90;;;;;;5119013;28;20099;-66
2022/01/08 12:04:35;;;;;;;12.65;9.65;;;3.90;99.90;;;;;;5121032;28;20121;-65
2022/01/08 12:07:29;;;;;;;19.83;12.40;;;3.90;99.90;;;;;;5124700;28;20062;-67
2022/01/08 12:10:04;;;;;;;21.50;13.10;;;4.10;99.90;;;;;;5156956;27;20055;-67
2022/01/08 12:12:45;;;;;;;20.58;12.38;;;3.90;99.90;;;;;;5154509;27;20048;-68
2022/01/08 12:15:12;;;;;;;18.55;12.75;;;4.00;99.90;;;;;;5123468;28;20090;-67
2022/01/08 12:17:58;;;;;;;21.98;12.25;;;4.20;99.90;;;;;;5087681;28;20047;-68
2022/01/08 12:20:52;;;;;;;18.58;11.68;;;4.30;99.90;;;;;;5116019;28;20541;-67
2022/01/08 12:23:35;;;;;;;18.17;13.68;;;4.50;99.90;;;;;;5110099;28;20058;-67
2022/01/08 12:26:20;;;;;;;21.83;14.55;;;4.40;99.90;;;;;;5110371;27;20090;-67
2022/01/08 12:28:46;;;;;;;22.05;15.30;;;4.40;99.90;;;;;;5125815;28;20067;-67
2022/01/08 12:31:30;;;;;;;20.05;15.60;;;4.30;99.90;;;;;;5135476;28;20054;-67
2022/01/08 12:34:32;;;;;;;22.52;15.30;;;4.30;99.90;;;;;;5105793;28;20047;-70
2022/01/08 12:37:03;;;;;;;21.67;16.88;;;4.30;99.90;;;;;;5045440;28;20059;-69
2022/01/08 12:39:44;;;;;;;25.88;17.27;;;4.30;99.90;;;;;;5047186;28;20070;-67
2022/01/08 12:42:27;;;;;;;24.80;16.25;;;4.40;99.90;;;;;;5049676;28;20410;-67
2022/01/08 12:45:19;;;;;;;23.90;16.98;;;4.40;99.90;;;;;;5054722;28;20060;-66
2022/01/08 12:47:47;;;;;;;18.55;14.82;;;4.10;99.90;;;;;;5058880;28;20076;-67
2022/01/08 12:50:22;;;;;;;24.65;16.20;;;4.40;99.90;;;;;;5063160;28;20083;-67
2022/01/08 12:53:06;;;;;;;23.98;17.00;;;4.40;99.90;;;;;;5057562;28;20084;-67
2022/01/08 12:55:53;;;;;;;28.00;16.88;;;4.50;99.90;;;;;;5049488;28;20048;-66
2022/01/08 12:58:25;;;;;;;26.20;17.92;;;4.40;99.90;;;;;;5042562;28;20049;-66
2022/01/08 13:00:57;;;;;;;24.38;18.00;;;4.40;99.90;;;;;;5050564;28;20080;-66
2022/01/08 13:03:32;;;;;;;25.70;15.02;;;4.20;99.90;;;;;;5044113;28;20053;-67
2022/01/08 13:06:00;;;;;;;27.33;18.98;;;4.40;99.90;;;;;;5067820;28;20464;-67
2022/01/08 13:08:31;;;;;;;30.80;21.65;;;4.30;99.90;;;;;;5061976;28;20163;-67
2022/01/08 13:11:00;;;;;;;33.45;21.92;;;4.10;99.90;;;;;;5066762;28;20089;-67
2022/01/08 13:13:48;;;;;;;34.45;19.85;;;4.20;99.90;;;;;;5090927;27;20401;-69